createdAt,value
2022-12-03T00:01:03.306Z,27.50
2022-12-03T00:03:31.310Z,23.17
2022-12-03T00:05:59.212Z,29.13
2022-12-03T00:08:27.051Z,26.03
2022-12-03T00:10:54.821Z,20.87
2022-12-03T00:13:24.003Z,30.80
2022-12-03T00:15:51.925Z,25.63
2022-12-03T00:18:19.861Z,26.03
2022-12-03T00:20:47.640Z,25.33
2022-12-03T00:23:15.523Z,24.10
2022-12-03T00:25:43.435Z,26.30
2022-12-03T00:28:11.249Z,27.93
2022-12-03T00:30:40.489Z,25.53
2022-12-03T00:33:08.355Z,28.30
2022-12-03T00:35:36.141Z,25.50
2022-12-03T00:38:04.291Z,28.57
2022-12-03T00:40:32.149Z,28.00
2022-12-03T00:43:00.026Z,27.87
2022-12-03T00:45:27.832Z,29.67
2022-12-03T00:47:56.963Z,27.90
2022-12-03T00:50:24.776Z,24.10
2022-12-03T00:52:52.627Z,20.53
2022-12-03T00:55:20.437Z,19.97
2022-12-03T00:57:48.310Z,22.17
2022-12-03T01:00:16.995Z,26.07
2022-12-03T01:02:44.908Z,28.00
2022-12-03T01:05:14.161Z,28.57
2022-12-03T01:07:42.104Z,28.43
2022-12-03T01:10:10.545Z,23.40
2022-12-03T01:12:38.395Z,27.20
2022-12-03T01:15:07.510Z,28.40
2022-12-03T01:17:35.413Z,23.20
2022-12-03T01:20:03.435Z,28.30
2022-12-03T01:22:32.957Z,29.00
2022-12-03T01:25:00.717Z,24.47
2022-12-03T01:27:28.765Z,28.80
2022-12-03T01:29:56.643Z,26.83
2022-12-03T01:32:23.516Z,25.93
2022-12-03T01:34:53.411Z,29.07
2022-12-03T01:37:24.573Z,26.07
2022-12-03T01:39:53.972Z,27.40
2022-12-03T01:42:25.653Z,27.87
2022-12-03T01:44:55.769Z,25.47
2022-12-03T01:47:27.411Z,28.50
2022-12-03T01:49:58.393Z,27.13
2022-12-03T01:52:31.282Z,27.10
2022-12-03T01:55:03.618Z,28.87
2022-12-03T01:57:40.709Z,27.20
2022-12-03T02:00:13.837Z,27.07
2022-12-03T02:02:41.745Z,25.50
2022-12-03T02:05:17.785Z,26.00
2022-12-03T02:07:45.909Z,25.63
2022-12-03T02:10:18.035Z,25.60
2022-12-03T02:12:51.214Z,28.07
2022-12-03T02:15:19.291Z,27.87
2022-12-03T02:17:47.215Z,28.93
2022-12-03T02:20:15.579Z,25.90
2022-12-03T02:22:49.934Z,27.23
2022-12-03T02:25:21.200Z,27.43
2022-12-03T02:27:50.201Z,26.00
2022-12-03T02:30:21.383Z,25.40
2022-12-03T02:32:50.031Z,27.07
2022-12-03T02:35:20.020Z,27.43
2022-12-03T02:37:51.157Z,26.97
2022-12-03T02:40:23.578Z,26.10
2022-12-03T02:42:53.433Z,29.63
2022-12-03T02:45:24.017Z,28.00
2022-12-03T02:47:56.619Z,28.00
2022-12-03T02:50:29.755Z,22.70
2022-12-03T02:53:01.323Z,27.10
2022-12-03T02:55:36.553Z,28.30
2022-12-03T02:58:06.010Z,24.70
2022-12-03T03:00:35.270Z,32.67
2022-12-03T03:03:04.460Z,28.70
2022-12-03T03:05:33.119Z,27.33
2022-12-03T03:08:02.554Z,26.40
2022-12-03T03:10:33.421Z,26.23
2022-12-03T03:13:03.489Z,25.63
2022-12-03T03:15:31.361Z,29.20
2022-12-03T03:17:59.233Z,26.63
2022-12-03T03:20:27.095Z,29.57
2022-12-03T03:22:54.880Z,26.23
2022-12-03T03:25:24.593Z,29.33
2022-12-03T03:27:54.700Z,28.47
2022-12-03T03:30:22.547Z,27.73
2022-12-03T03:32:50.432Z,30.73
2022-12-03T03:35:18.322Z,27.37
2022-12-03T03:37:46.326Z,28.97
2022-12-03T03:40:14.423Z,28.73
2022-12-03T03:42:42.416Z,28.20
2022-12-03T03:45:12.160Z,31.90
2022-12-03T03:47:40.339Z,28.17
2022-12-03T03:50:11.346Z,30.13
2022-12-03T03:52:40.606Z,25.50
2022-12-03T03:55:10.728Z,28.03
2022-12-03T03:57:39.779Z,29.63
2022-12-03T04:00:09.484Z,30.93
2022-12-03T04:02:39.187Z,31.87
2022-12-03T04:05:07.837Z,30.67
2022-12-03T04:07:35.824Z,30.70
2022-12-03T04:10:24.532Z,30.97
2022-12-03T04:12:57.539Z,30.07
2022-12-03T04:15:26.077Z,29.13
2022-12-03T04:18:13.800Z,31.27
2022-12-03T04:20:42.543Z,33.10
2022-12-03T04:23:09.675Z,31.27
2022-12-03T04:25:55.325Z,29.10
2022-12-03T04:28:40.985Z,34.17
2022-12-03T04:31:22.969Z,30.13
2022-12-03T04:34:09.115Z,36.23
2022-12-03T04:36:36.983Z,30.70
2022-12-03T04:39:05.120Z,31.47
2022-12-03T04:41:33.082Z,28.27
2022-12-03T04:44:14.841Z,30.47
2022-12-03T04:46:42.647Z,30.90
2022-12-03T04:49:11.878Z,27.47
2022-12-03T04:51:39.920Z,28.23
2022-12-03T04:54:07.986Z,25.57
2022-12-03T04:56:35.971Z,28.43
2022-12-03T04:59:03.816Z,27.87
2022-12-03T05:01:31.804Z,26.30
2022-12-03T05:03:59.773Z,26.93
2022-12-03T05:06:28.931Z,26.83
2022-12-03T05:08:56.741Z,30.07
2022-12-03T05:11:25.188Z,24.93
2022-12-03T05:13:53.812Z,25.97
2022-12-03T05:16:21.699Z,25.03
2022-12-03T05:18:49.701Z,26.97
2022-12-03T05:21:17.582Z,24.07
2022-12-03T05:23:46.999Z,27.40
2022-12-03T05:26:16.101Z,24.00
2022-12-03T05:28:44.021Z,23.57
2022-12-03T05:31:11.982Z,25.60
2022-12-03T05:33:44.256Z,29.17
2022-12-03T05:36:12.730Z,22.70
2022-12-03T05:38:40.593Z,26.60
2022-12-03T05:41:23.835Z,28.93
2022-12-03T05:43:52.182Z,27.33
2022-12-03T05:46:20.054Z,26.60
2022-12-03T05:48:48.056Z,30.47
2022-12-03T05:51:15.866Z,25.40
2022-12-03T05:53:43.864Z,31.90
2022-12-03T05:56:13.003Z,30.53
2022-12-03T05:58:40.864Z,34.30
2022-12-03T06:01:08.665Z,28.53
2022-12-03T06:03:36.757Z,25.80
2022-12-03T06:06:05.012Z,28.30
2022-12-03T06:08:32.856Z,36.10
2022-12-03T06:11:00.647Z,40.57
2022-12-03T06:13:29.900Z,35.27
2022-12-03T06:15:57.736Z,38.13
2022-12-03T06:18:25.691Z,34.57
2022-12-03T06:20:53.521Z,31.80
2022-12-03T06:23:21.332Z,33.87
2022-12-03T06:25:50.624Z,37.60
2022-12-03T06:28:18.495Z,31.00
2022-12-03T06:30:47.755Z,32.80
2022-12-03T06:33:15.645Z,33.80
2022-12-03T06:35:43.558Z,34.50
2022-12-03T06:38:12.613Z,38.17
2022-12-03T06:40:40.425Z,31.50
2022-12-03T06:43:09.148Z,35.67
2022-12-03T06:45:36.940Z,38.17
2022-12-03T06:48:06.851Z,37.00
2022-12-03T06:50:34.722Z,34.23
2022-12-03T06:53:02.457Z,31.67
2022-12-03T06:55:30.511Z,37.40
2022-12-03T06:57:58.358Z,32.57
2022-12-03T07:00:26.457Z,36.00
2022-12-03T07:02:54.366Z,33.40
2022-12-03T07:05:23.582Z,33.93
2022-12-03T07:07:52.117Z,33.07
2022-12-03T07:10:20.395Z,29.70
2022-12-03T07:12:48.665Z,31.37
2022-12-03T07:15:16.757Z,33.20
2022-12-03T07:17:44.620Z,31.83
2022-12-03T07:20:13.059Z,35.10
2022-12-03T07:22:42.251Z,33.70
2022-12-03T07:25:10.401Z,31.60
2022-12-03T07:27:38.298Z,33.37
2022-12-03T07:30:07.791Z,35.40
2022-12-03T07:32:35.613Z,31.93
2022-12-03T07:35:07.120Z,35.87
2022-12-03T07:37:35.041Z,33.13
2022-12-03T07:40:05.281Z,34.90
2022-12-03T07:42:33.227Z,31.37
2022-12-03T07:45:01.152Z,32.53
2022-12-03T07:47:29.044Z,32.77
2022-12-03T07:49:56.860Z,33.83
2022-12-03T07:52:24.797Z,37.13
2022-12-03T07:54:52.842Z,34.43
2022-12-03T07:57:22.336Z,32.27
2022-12-03T07:59:50.215Z,29.43
2022-12-03T08:02:21.231Z,30.77
2022-12-03T08:04:49.608Z,32.80
2022-12-03T08:07:17.470Z,36.07
2022-12-03T08:09:45.504Z,33.67
2022-12-03T08:12:17.936Z,34.47
2022-12-03T08:14:47.190Z,31.03
2022-12-03T08:17:17.790Z,33.50
2022-12-03T08:19:47.936Z,35.53
2022-12-03T08:22:16.872Z,29.17
2022-12-03T08:24:44.985Z,34.47
2022-12-03T08:27:18.744Z,32.17
2022-12-03T08:29:48.219Z,32.10
2022-12-03T08:32:16.187Z,34.73
2022-12-03T08:34:45.815Z,34.60
2022-12-03T08:37:17.390Z,29.93
2022-12-03T08:39:46.789Z,26.53
2022-12-03T08:42:37.119Z,30.43
2022-12-03T08:45:39.433Z,34.23
2022-12-03T08:48:28.568Z,33.13
2022-12-03T08:50:58.529Z,33.53
2022-12-03T08:53:31.397Z,32.80
2022-12-03T08:56:00.808Z,35.80
2022-12-03T08:58:43.753Z,31.40
2022-12-03T09:01:39.405Z,31.77
2022-12-03T09:04:23.669Z,35.80
2022-12-03T09:06:52.053Z,33.77
2022-12-03T09:09:20.445Z,35.03
2022-12-03T09:11:48.345Z,36.03
2022-12-03T09:14:20.999Z,34.07
2022-12-03T09:16:51.814Z,34.70
2022-12-03T09:19:19.794Z,31.90
2022-12-03T09:21:47.703Z,34.53
2022-12-03T09:24:15.558Z,33.57
2022-12-03T09:26:43.379Z,34.80
2022-12-03T09:29:12.639Z,33.33
2022-12-03T09:31:41.071Z,32.63
2022-12-03T09:34:10.749Z,33.27
2022-12-03T09:36:38.756Z,30.13
2022-12-03T09:39:06.673Z,32.43
2022-12-03T09:41:34.725Z,35.10
2022-12-03T09:44:04.710Z,37.13
2022-12-03T09:46:35.071Z,34.67
2022-12-03T09:49:03.446Z,35.50
2022-12-03T09:51:36.055Z,32.33
2022-12-03T09:54:06.802Z,35.10
2022-12-03T09:56:38.689Z,34.07
2022-12-03T09:59:08.321Z,36.80
2022-12-03T10:01:36.775Z,35.53
2022-12-03T10:04:04.801Z,36.10
2022-12-03T10:06:34.251Z,34.23
2022-12-03T10:09:02.416Z,31.80
2022-12-03T10:11:31.468Z,42.07
2022-12-03T10:13:59.877Z,41.60
2022-12-03T10:16:30.314Z,32.53
2022-12-03T10:19:01.514Z,33.93
2022-12-03T10:21:32.095Z,33.00
2022-12-03T10:24:20.698Z,26.70
2022-12-03T10:26:50.096Z,34.50
2022-12-03T10:29:20.799Z,34.53
2022-12-03T10:31:57.359Z,33.10
2022-12-03T10:34:27.529Z,32.63
2022-12-03T10:37:12.445Z,34.40
2022-12-03T10:39:59.463Z,34.17
2022-12-03T10:42:29.035Z,33.00
2022-12-03T10:45:14.241Z,30.83
2022-12-03T10:47:42.276Z,35.17
2022-12-03T10:50:17.781Z,31.80
2022-12-03T10:52:46.222Z,25.03
2022-12-03T10:55:16.817Z,33.63
2022-12-03T10:57:46.400Z,27.77
2022-12-03T11:00:18.607Z,31.52
2022-12-03T11:02:51.718Z,30.07
2022-12-03T11:05:27.781Z,31.83
2022-12-03T11:07:56.466Z,30.73
2022-12-03T11:10:26.261Z,28.77
2022-12-03T11:13:28.073Z,30.10
2022-12-03T11:15:56.533Z,28.77
2022-12-03T11:19:00.040Z,27.23
2022-12-03T11:21:27.888Z,31.97
2022-12-03T11:24:20.116Z,24.50
2022-12-03T11:27:08.921Z,26.53
2022-12-03T11:30:00.046Z,28.43
2022-12-03T11:33:04.704Z,27.63
2022-12-03T11:35:38.258Z,28.23
2022-12-03T11:38:40.794Z,26.63
2022-12-03T11:41:10.029Z,27.03
2022-12-03T11:44:20.465Z,25.73
2022-12-03T11:46:50.565Z,33.20
2022-12-03T11:49:26.143Z,28.67
2022-12-03T11:51:54.220Z,30.93
2022-12-03T11:54:24.285Z,28.37
2022-12-03T11:56:54.008Z,22.40
2022-12-03T11:59:22.471Z,29.67
2022-12-03T12:01:51.600Z,27.53
2022-12-03T12:04:32.715Z,32.17
2022-12-03T12:07:01.095Z,26.23
2022-12-03T12:09:52.224Z,25.20
2022-12-03T12:12:31.104Z,27.67
2022-12-03T12:14:59.994Z,25.87
2022-12-03T12:17:34.169Z,31.93
2022-12-03T12:20:25.619Z,34.90
2022-12-03T12:22:54.300Z,29.17
2022-12-03T12:25:38.892Z,31.27
2022-12-03T12:28:06.851Z,28.23
2022-12-03T12:30:34.748Z,32.47
2022-12-03T12:33:18.375Z,31.13
2022-12-03T12:35:46.402Z,31.67
2022-12-03T12:38:17.342Z,28.90
2022-12-03T12:40:46.877Z,33.73
2022-12-03T12:43:24.667Z,35.20
2022-12-03T12:45:54.644Z,28.37
2022-12-03T12:48:28.415Z,31.23
2022-12-03T12:51:01.966Z,33.20
2022-12-03T12:53:32.122Z,24.57
2022-12-03T12:56:02.139Z,31.73
2022-12-03T12:58:33.193Z,29.23
2022-12-03T13:01:05.060Z,29.93
2022-12-03T13:03:37.685Z,33.77
2022-12-03T13:06:06.084Z,29.40
2022-12-03T13:08:39.002Z,30.63
2022-12-03T13:11:13.313Z,28.90
2022-12-03T13:13:44.225Z,31.17
2022-12-03T13:16:16.217Z,29.13
2022-12-03T13:18:47.646Z,32.40
2022-12-03T13:21:23.934Z,30.57
2022-12-03T13:23:54.507Z,31.13
2022-12-03T13:26:38.723Z,30.23
2022-12-03T13:29:14.380Z,27.37
2022-12-03T13:31:53.147Z,31.17
2022-12-03T13:34:24.559Z,29.87
2022-12-03T13:36:58.117Z,30.37
2022-12-03T13:39:31.677Z,26.70
2022-12-03T13:42:24.462Z,26.83
2022-12-03T13:44:54.205Z,28.33
2022-12-03T13:47:23.107Z,25.40
2022-12-03T13:49:55.325Z,24.83
2022-12-03T13:52:25.428Z,28.67
2022-12-03T13:54:55.902Z,31.20
2022-12-03T13:57:24.109Z,24.43
2022-12-03T13:59:52.366Z,24.17
2022-12-03T14:02:20.609Z,22.73
2022-12-03T14:04:48.413Z,26.47
2022-12-03T14:07:18.019Z,20.80
2022-12-03T14:09:45.808Z,23.30
2022-12-03T14:12:33.377Z,25.27
2022-12-03T14:15:01.340Z,23.03
2022-12-03T14:17:30.162Z,21.53
2022-12-03T14:19:58.132Z,23.50
2022-12-03T14:22:27.435Z,23.60
2022-12-03T14:24:55.509Z,21.90
2022-12-03T14:27:25.199Z,18.10
2022-12-03T14:29:53.377Z,23.83
2022-12-03T14:32:21.522Z,26.30
2022-12-03T14:34:49.683Z,26.03
2022-12-03T14:37:17.823Z,26.87
2022-12-03T14:39:46.986Z,23.97
2022-12-03T14:42:14.921Z,22.47
2022-12-03T14:44:43.875Z,24.07
2022-12-03T14:47:12.231Z,23.60
2022-12-03T14:49:40.245Z,24.07
2022-12-03T14:52:11.915Z,24.33
2022-12-03T14:54:41.997Z,20.83
2022-12-03T14:57:12.656Z,24.43
2022-12-03T14:59:40.816Z,21.17
2022-12-03T15:02:08.840Z,24.07
2022-12-03T15:04:38.028Z,22.53
2022-12-03T15:07:06.648Z,19.37
2022-12-03T15:09:34.649Z,23.27
2022-12-03T15:12:04.452Z,22.10
2022-12-03T15:14:33.852Z,21.83
2022-12-03T15:17:01.757Z,21.83
2022-12-03T15:19:29.616Z,19.53
2022-12-03T15:21:57.467Z,17.97
2022-12-03T15:24:25.287Z,24.33
2022-12-03T15:26:53.446Z,21.73
2022-12-03T15:29:21.831Z,20.53
2022-12-03T15:31:51.141Z,28.63
2022-12-03T15:34:22.836Z,25.23
2022-12-03T15:36:51.121Z,25.53
2022-12-03T15:39:18.943Z,26.37
2022-12-03T15:41:46.893Z,27.10
2022-12-03T15:44:14.670Z,25.47
2022-12-03T15:46:42.618Z,20.83
2022-12-03T15:49:11.884Z,23.20
2022-12-03T15:51:39.766Z,22.60
2022-12-03T15:54:07.599Z,23.47
2022-12-03T15:56:37.442Z,23.30
2022-12-03T15:59:05.456Z,24.07
2022-12-03T16:01:33.395Z,21.93
2022-12-03T16:04:01.323Z,22.43
2022-12-03T16:06:30.429Z,25.87
2022-12-03T16:08:58.620Z,22.93
2022-12-03T16:11:26.436Z,26.03
2022-12-03T16:13:54.337Z,24.87
2022-12-03T16:16:49.634Z,24.43
2022-12-03T16:19:17.506Z,24.20
2022-12-03T16:21:46.641Z,23.90
2022-12-03T16:24:14.499Z,26.90
2022-12-03T16:26:42.368Z,24.47
2022-12-03T16:29:10.247Z,26.13
2022-12-03T16:31:38.106Z,24.97
2022-12-03T16:34:06.023Z,28.47
2022-12-03T16:36:33.825Z,24.43
2022-12-03T16:39:03.053Z,27.47
2022-12-03T16:41:30.920Z,25.27
2022-12-03T16:44:01.400Z,25.20
2022-12-03T16:46:29.465Z,21.10
2022-12-03T16:48:58.756Z,24.57
2022-12-03T16:51:28.281Z,26.47
2022-12-03T16:53:56.103Z,24.77
2022-12-03T16:56:25.348Z,26.77
2022-12-03T16:58:53.132Z,27.20
2022-12-03T17:01:23.364Z,25.00
2022-12-03T17:03:51.322Z,26.97
2022-12-03T17:06:19.127Z,28.30
2022-12-03T17:08:49.737Z,27.17
2022-12-03T17:11:18.480Z,28.77
2022-12-03T17:13:47.983Z,24.70
2022-12-03T17:16:15.987Z,25.03
2022-12-03T17:18:43.880Z,25.40
2022-12-03T17:21:11.734Z,28.90
2022-12-03T17:23:39.623Z,27.40
2022-12-03T17:26:07.440Z,28.87
2022-12-03T17:28:35.551Z,25.33
2022-12-03T17:31:05.096Z,28.70
2022-12-03T17:33:33.108Z,28.37
2022-12-03T17:36:01.317Z,29.37
2022-12-03T17:38:31.635Z,30.97
2022-12-03T17:41:04.039Z,27.70
2022-12-03T17:43:31.824Z,27.00
2022-12-03T17:46:00.423Z,26.67
2022-12-03T17:48:31.094Z,30.23
2022-12-03T17:50:59.009Z,29.57
2022-12-03T17:53:26.979Z,27.00
2022-12-03T17:55:55.033Z,26.27
2022-12-03T17:58:22.924Z,27.53
2022-12-03T18:00:50.763Z,28.77
2022-12-03T18:03:18.577Z,28.30
2022-12-03T18:05:47.728Z,25.53
2022-12-03T18:08:15.547Z,25.93
2022-12-03T18:10:43.405Z,27.47
2022-12-03T18:13:11.258Z,27.17
2022-12-03T18:15:39.218Z,27.93
2022-12-03T18:18:07.112Z,27.53
2022-12-03T18:20:35.020Z,28.47
2022-12-03T18:23:04.268Z,30.27
2022-12-03T18:25:32.295Z,31.70
2022-12-03T18:28:00.184Z,32.53
2022-12-03T18:30:28.001Z,28.47
2022-12-03T18:32:56.170Z,30.60
2022-12-03T18:35:24.246Z,29.93
2022-12-03T18:37:52.313Z,28.57
2022-12-03T18:40:25.039Z,27.87
2022-12-03T18:42:54.139Z,31.73
2022-12-03T18:45:21.916Z,31.83
2022-12-03T18:47:49.844Z,35.17
2022-12-03T18:50:18.545Z,38.97
2022-12-03T18:52:46.412Z,36.90
2022-12-03T18:55:18.736Z,40.80
2022-12-03T18:57:47.945Z,37.87
2022-12-03T19:00:16.937Z,39.13
2022-12-03T19:05:34.465Z,42.90
2022-12-03T19:08:02.794Z,39.60
2022-12-03T19:10:30.704Z,39.20
2022-12-03T19:12:59.915Z,41.60
2022-12-03T19:15:27.757Z,43.47
2022-12-03T19:17:55.691Z,40.37
2022-12-03T19:20:23.540Z,44.83
2022-12-03T19:22:51.384Z,46.73
2022-12-03T19:25:19.286Z,43.00
2022-12-03T19:27:49.089Z,48.63
2022-12-03T19:30:18.676Z,46.07
2022-12-03T19:32:46.736Z,41.77
2022-12-03T19:35:14.504Z,48.03
2022-12-03T19:37:42.404Z,42.47
2022-12-03T19:40:11.324Z,47.20
2022-12-03T19:42:39.580Z,49.43
2022-12-03T19:45:08.731Z,48.97
2022-12-03T19:47:38.574Z,50.07
2022-12-03T19:50:08.472Z,46.87
2022-12-03T19:52:37.349Z,46.00
2022-12-03T19:55:06.103Z,46.27
2022-12-03T19:57:33.932Z,49.40
2022-12-03T20:00:01.771Z,45.30
2022-12-03T20:02:29.722Z,43.83
2022-12-03T20:04:58.979Z,49.87
2022-12-03T20:07:26.887Z,49.50
2022-12-03T20:09:54.910Z,45.37
2022-12-03T20:12:22.909Z,49.50
2022-12-03T20:14:51.542Z,47.90
2022-12-03T20:17:19.536Z,49.90
2022-12-03T20:19:47.608Z,45.50
2022-12-03T20:22:16.752Z,46.23
2022-12-03T20:24:44.605Z,43.63
2022-12-03T20:27:12.501Z,47.40
2022-12-03T20:29:40.450Z,45.57
2022-12-03T20:32:08.401Z,45.23
2022-12-03T20:34:36.391Z,43.10
2022-12-03T20:37:04.426Z,41.90
2022-12-03T20:39:33.647Z,47.03
2022-12-03T20:42:01.542Z,50.43
2022-12-03T20:44:29.307Z,49.53
2022-12-03T20:46:57.217Z,48.67
2022-12-03T20:49:25.160Z,47.13
2022-12-03T20:51:52.981Z,50.77
2022-12-03T20:54:20.844Z,45.53
2022-12-03T20:56:50.205Z,48.00
2022-12-03T20:59:18.707Z,49.30
2022-12-03T21:01:46.741Z,46.90
2022-12-03T21:04:16.009Z,43.67
2022-12-03T21:06:43.885Z,46.40
2022-12-03T21:09:13.085Z,47.30
2022-12-03T21:11:42.371Z,47.30
2022-12-03T21:14:12.338Z,50.33
2022-12-03T21:19:30.120Z,55.47
2022-12-03T21:21:57.976Z,51.03
2022-12-03T21:24:25.795Z,44.83
2022-12-03T21:26:53.609Z,52.03
2022-12-03T21:29:22.973Z,50.57
2022-12-03T21:31:51.030Z,49.23
2022-12-03T21:34:18.902Z,55.17
2022-12-03T21:36:46.873Z,51.83
2022-12-03T21:39:15.342Z,52.57
2022-12-03T21:42:22.327Z,52.67
2022-12-03T21:44:32.612Z,52.73
2022-12-03T21:47:11.454Z,54.93
2022-12-03T21:49:41.983Z,50.73
2022-12-03T21:52:10.141Z,51.33
2022-12-03T21:54:38.147Z,51.53
2022-12-03T21:57:05.971Z,52.40
2022-12-03T21:59:35.233Z,49.37
2022-12-03T22:02:03.267Z,50.73
2022-12-03T22:04:31.278Z,49.13
2022-12-03T22:06:59.110Z,50.63
2022-12-03T22:09:27.143Z,54.87
2022-12-03T22:11:56.776Z,51.40
2022-12-03T22:14:24.600Z,47.13
2022-12-03T22:16:53.921Z,47.73
2022-12-03T22:19:23.038Z,52.50
2022-12-03T22:21:50.914Z,50.73
2022-12-03T22:24:19.494Z,43.03
2022-12-03T22:26:47.991Z,46.17
2022-12-03T22:29:16.242Z,43.47
2022-12-03T22:31:44.061Z,48.07
2022-12-03T22:34:13.404Z,47.27
2022-12-03T22:36:41.408Z,46.00
2022-12-03T22:39:09.395Z,43.30
2022-12-03T22:41:37.228Z,40.57
2022-12-03T22:44:05.137Z,43.07
2022-12-03T22:46:32.973Z,44.97
2022-12-03T22:49:06.778Z,41.60
2022-12-03T22:51:36.915Z,40.83
2022-12-03T22:54:05.428Z,47.57
2022-12-03T22:56:33.301Z,46.83
2022-12-03T22:59:01.310Z,42.97
2022-12-03T23:01:32.206Z,46.77
2022-12-03T23:04:00.588Z,44.47
2022-12-03T23:06:29.198Z,42.07
2022-12-03T23:08:59.751Z,46.43
2022-12-03T23:11:28.509Z,47.90
2022-12-03T23:13:56.442Z,44.73
2022-12-03T23:16:27.096Z,46.33
2022-12-03T23:18:55.278Z,47.27
2022-12-03T23:21:29.358Z,44.07
2022-12-03T23:24:00.478Z,46.23
2022-12-03T23:26:29.222Z,45.40
2022-12-03T23:28:57.355Z,45.83
2022-12-03T23:31:27.292Z,48.20
2022-12-03T23:33:56.553Z,46.67
2022-12-03T23:36:25.538Z,54.43
2022-12-03T23:38:53.694Z,48.83
2022-12-03T23:41:24.584Z,48.13
2022-12-03T23:43:53.327Z,47.70
2022-12-03T23:46:22.849Z,48.33
2022-12-03T23:48:51.961Z,48.90
2022-12-03T23:51:22.034Z,47.80
2022-12-03T23:53:50.365Z,47.00
2022-12-03T23:56:20.007Z,46.43
2022-12-03T23:58:49.419Z,50.47
